sensor_id;sensor_type;location;lat;lon;timestamp;P1;durP1;ratioP1;P2;durP2;ratioP2
53674;SDS011;39574;50.534;8.500;2023-02-11T00:04:11;56.5;;;28.3;;
53674;SDS011;39574;50.534;8.500;2023-02-11T00:09:10;55.1;;;28.2;;
53674;SDS011;39574;50.534;8.500;2023-02-11T00:14:08;54.7;;;27.6;;
53674;SDS011;39574;50.534;8.500;2023-02-11T00:19:08;53.1;;;26.4;;
53674;SDS011;39574;50.534;8.500;2023-02-11T00:24:06;50.7;;;25.7;;
53674;SDS011;39574;50.534;8.500;2023-02-11T00:29:04;50.7;;;26.1;;
53674;SDS011;39574;50.534;8.500;2023-02-11T00:34:03;50.8;;;26.3;;
53674;SDS011;39574;50.534;8.500;2023-02-11T00:39:02;51.0;;;26.4;;
53674;SDS011;39574;50.534;8.500;2023-02-11T00:44:00;53.3;;;27.3;;
53674;SDS011;39574;50.534;8.500;2023-02-11T00:48:59;55.4;;;28.2;;
53674;SDS011;39574;50.534;8.500;2023-02-11T00:53:58;55.6;;;28.0;;
53674;SDS011;39574;50.534;8.500;2023-02-11T00:58:56;59.5;;;29.6;;
53674;SDS011;39574;50.534;8.500;2023-02-11T01:03:55;57.9;;;29.2;;
53674;SDS011;39574;50.534;8.500;2023-02-11T01:08:54;57.6;;;29.6;;
53674;SDS011;39574;50.534;8.500;2023-02-11T01:13:52;56.8;;;28.9;;
53674;SDS011;39574;50.534;8.500;2023-02-11T01:18:51;55.4;;;28.4;;
53674;SDS011;39574;50.534;8.500;2023-02-11T01:23:50;54.9;;;27.9;;
53674;SDS011;39574;50.534;8.500;2023-02-11T01:28:48;53.7;;;27.7;;
53674;SDS011;39574;50.534;8.500;2023-02-11T01:33:47;53.1;;;27.1;;
53674;SDS011;39574;50.534;8.500;2023-02-11T01:43:45;50.7;;;26.5;;
53674;SDS011;39574;50.534;8.500;2023-02-11T01:48:44;49.1;;;25.9;;
53674;SDS011;39574;50.534;8.500;2023-02-11T01:53:41;49.8;;;26.1;;
53674;SDS011;39574;50.534;8.500;2023-02-11T01:58:40;48.3;;;25.6;;
53674;SDS011;39574;50.534;8.500;2023-02-11T02:03:41;46.7;;;24.9;;
53674;SDS011;39574;50.534;8.500;2023-02-11T02:08:38;49.1;;;25.6;;
53674;SDS011;39574;50.534;8.500;2023-02-11T02:13:36;48.8;;;25.3;;
53674;SDS011;39574;50.534;8.500;2023-02-11T02:18:36;48.4;;;24.9;;
53674;SDS011;39574;50.534;8.500;2023-02-11T02:23:35;47.8;;;24.3;;
53674;SDS011;39574;50.534;8.500;2023-02-11T02:28:36;46.7;;;23.9;;
53674;SDS011;39574;50.534;8.500;2023-02-11T02:33:32;45.3;;;23.6;;
53674;SDS011;39574;50.534;8.500;2023-02-11T02:38:30;46.2;;;23.9;;
53674;SDS011;39574;50.534;8.500;2023-02-11T02:43:28;46.2;;;24.2;;
53674;SDS011;39574;50.534;8.500;2023-02-11T02:48:27;45.4;;;23.9;;
53674;SDS011;39574;50.534;8.500;2023-02-11T02:53:27;45.2;;;23.8;;
53674;SDS011;39574;50.534;8.500;2023-02-11T02:59:33;44.0;;;24.2;;
53674;SDS011;39574;50.534;8.500;2023-02-11T03:03:25;47.7;;;25.2;;
53674;SDS011;39574;50.534;8.500;2023-02-11T03:08:23;49.5;;;26.1;;
53674;SDS011;39574;50.534;8.500;2023-02-11T03:13:21;51.3;;;26.4;;
53674;SDS011;39574;50.534;8.500;2023-02-11T03:18:19;51.3;;;26.8;;
53674;SDS011;39574;50.534;8.500;2023-02-11T03:23:20;52.6;;;27.3;;
53674;SDS011;39574;50.534;8.500;2023-02-11T03:28:16;53.1;;;27.6;;
53674;SDS011;39574;50.534;8.500;2023-02-11T03:33:16;52.0;;;27.0;;
53674;SDS011;39574;50.534;8.500;2023-02-11T03:38:15;51.7;;;26.9;;
53674;SDS011;39574;50.534;8.500;2023-02-11T03:43:14;49.7;;;26.3;;
53674;SDS011;39574;50.534;8.500;2023-02-11T03:48:11;51.5;;;26.6;;
53674;SDS011;39574;50.534;8.500;2023-02-11T03:53:09;51.9;;;26.7;;
53674;SDS011;39574;50.534;8.500;2023-02-11T03:58:08;52.9;;;26.9;;
53674;SDS011;39574;50.534;8.500;2023-02-11T04:03:07;54.0;;;27.1;;
53674;SDS011;39574;50.534;8.500;2023-02-11T04:08:05;54.6;;;27.6;;
53674;SDS011;39574;50.534;8.500;2023-02-11T04:13:04;54.8;;;27.6;;
53674;SDS011;39574;50.534;8.500;2023-02-11T04:18:03;56.6;;;28.8;;
53674;SDS011;39574;50.534;8.500;2023-02-11T04:23:01;55.9;;;28.4;;
53674;SDS011;39574;50.534;8.500;2023-02-11T04:28:00;54.1;;;28.0;;
53674;SDS011;39574;50.534;8.500;2023-02-11T04:32:58;52.2;;;27.7;;
53674;SDS011;39574;50.534;8.500;2023-02-11T04:37:57;52.2;;;27.6;;
53674;SDS011;39574;50.534;8.500;2023-02-11T04:42:56;53.5;;;28.0;;
53674;SDS011;39574;50.534;8.500;2023-02-11T04:47:55;54.9;;;28.2;;
53674;SDS011;39574;50.534;8.500;2023-02-11T04:52:53;54.7;;;28.1;;
53674;SDS011;39574;50.534;8.500;2023-02-11T04:57:52;55.3;;;28.2;;
53674;SDS011;39574;50.534;8.500;2023-02-11T05:02:50;54.8;;;28.0;;
53674;SDS011;39574;50.534;8.500;2023-02-11T05:07:49;55.4;;;28.6;;
53674;SDS011;39574;50.534;8.500;2023-02-11T05:12:48;56.9;;;29.4;;
53674;SDS011;39574;50.534;8.500;2023-02-11T05:17:46;57.1;;;29.2;;
53674;SDS011;39574;50.534;8.500;2023-02-11T05:22:45;56.9;;;29.1;;
53674;SDS011;39574;50.534;8.500;2023-02-11T05:27:44;55.8;;;28.7;;
53674;SDS011;39574;50.534;8.500;2023-02-11T05:32:42;55.7;;;28.2;;
53674;SDS011;39574;50.534;8.500;2023-02-11T05:37:41;57.0;;;28.9;;
53674;SDS011;39574;50.534;8.500;2023-02-11T05:42:39;58.4;;;29.7;;
53674;SDS011;39574;50.534;8.500;2023-02-11T05:47:38;56.6;;;29.0;;
53674;SDS011;39574;50.534;8.500;2023-02-11T05:52:37;55.1;;;28.9;;
53674;SDS011;39574;50.534;8.500;2023-02-11T05:57:35;57.3;;;29.8;;
53674;SDS011;39574;50.534;8.500;2023-02-11T06:02:34;58.9;;;30.1;;
53674;SDS011;39574;50.534;8.500;2023-02-11T06:07:33;60.2;;;30.2;;
53674;SDS011;39574;50.534;8.500;2023-02-11T06:12:31;59.2;;;29.4;;
53674;SDS011;39574;50.534;8.500;2023-02-11T06:22:28;57.9;;;29.3;;
53674;SDS011;39574;50.534;8.500;2023-02-11T06:27:27;55.7;;;29.0;;
53674;SDS011;39574;50.534;8.500;2023-02-11T06:32:26;55.5;;;29.5;;
53674;SDS011;39574;50.534;8.500;2023-02-11T06:37:24;55.5;;;29.5;;
53674;SDS011;39574;50.534;8.500;2023-02-11T06:42:23;56.1;;;29.7;;
53674;SDS011;39574;50.534;8.500;2023-02-11T06:47:22;57.0;;;30.0;;
53674;SDS011;39574;50.534;8.500;2023-02-11T06:52:20;58.4;;;30.1;;
53674;SDS011;39574;50.534;8.500;2023-02-11T06:57:19;57.7;;;30.5;;
53674;SDS011;39574;50.534;8.500;2023-02-11T07:02:18;58.9;;;30.9;;
53674;SDS011;39574;50.534;8.500;2023-02-11T07:07:16;61.1;;;31.6;;
53674;SDS011;39574;50.534;8.500;2023-02-11T07:12:15;60.1;;;31.1;;
53674;SDS011;39574;50.534;8.500;2023-02-11T07:17:13;64.5;;;33.3;;
53674;SDS011;39574;50.534;8.500;2023-02-11T07:22:12;63.7;;;32.6;;
53674;SDS011;39574;50.534;8.500;2023-02-11T07:27:11;68.6;;;34.7;;
53674;SDS011;39574;50.534;8.500;2023-02-11T07:32:09;71.2;;;36.5;;
53674;SDS011;39574;50.534;8.500;2023-02-11T07:37:08;68.6;;;35.8;;
53674;SDS011;39574;50.534;8.500;2023-02-11T07:42:06;64.6;;;33.9;;
53674;SDS011;39574;50.534;8.500;2023-02-11T07:47:05;60.6;;;32.3;;
53674;SDS011;39574;50.534;8.500;2023-02-11T07:52:04;61.1;;;32.2;;
53674;SDS011;39574;50.534;8.500;2023-02-11T07:57:02;63.2;;;31.9;;
53674;SDS011;39574;50.534;8.500;2023-02-11T08:02:01;63.7;;;32.0;;
53674;SDS011;39574;50.534;8.500;2023-02-11T08:07:00;61.7;;;31.6;;
53674;SDS011;39574;50.534;8.500;2023-02-11T08:11:59;61.1;;;31.1;;
53674;SDS011;39574;50.534;8.500;2023-02-11T08:21:56;59.9;;;31.2;;
53674;SDS011;39574;50.534;8.500;2023-02-11T08:26:55;59.6;;;31.9;;
53674;SDS011;39574;50.534;8.500;2023-02-11T08:31:53;59.6;;;32.1;;
53674;SDS011;39574;50.534;8.500;2023-02-11T08:36:52;60.3;;;32.0;;
53674;SDS011;39574;50.534;8.500;2023-02-11T08:41:51;58.4;;;31.6;;
53674;SDS011;39574;50.534;8.500;2023-02-11T08:46:50;57.9;;;31.0;;
53674;SDS011;39574;50.534;8.500;2023-02-11T08:51:48;58.9;;;30.6;;
53674;SDS011;39574;50.534;8.500;2023-02-11T08:56:49;57.2;;;30.1;;
53674;SDS011;39574;50.534;8.500;2023-02-11T09:01:45;57.7;;;30.3;;
53674;SDS011;39574;50.534;8.500;2023-02-11T09:06:44;59.1;;;31.4;;
53674;SDS011;39574;50.534;8.500;2023-02-11T09:11:42;59.2;;;31.6;;
53674;SDS011;39574;50.534;8.500;2023-02-11T09:16:41;60.2;;;31.7;;
53674;SDS011;39574;50.534;8.500;2023-02-11T09:21:40;59.5;;;31.1;;
53674;SDS011;39574;50.534;8.500;2023-02-11T09:26:39;61.2;;;31.6;;
53674;SDS011;39574;50.534;8.500;2023-02-11T09:31:37;61.1;;;31.6;;
53674;SDS011;39574;50.534;8.500;2023-02-11T09:36:36;58.4;;;30.5;;
53674;SDS011;39574;50.534;8.500;2023-02-11T09:41:38;57.1;;;30.6;;
53674;SDS011;39574;50.534;8.500;2023-02-11T09:46:34;58.9;;;31.6;;
53674;SDS011;39574;50.534;8.500;2023-02-11T09:51:33;61.2;;;31.4;;
53674;SDS011;39574;50.534;8.500;2023-02-11T09:56:30;60.8;;;31.2;;
53674;SDS011;39574;50.534;8.500;2023-02-11T10:01:29;63.4;;;32.0;;
53674;SDS011;39574;50.534;8.500;2023-02-11T10:06:31;61.2;;;31.4;;
53674;SDS011;39574;50.534;8.500;2023-02-11T10:11:29;64.9;;;33.1;;
53674;SDS011;39574;50.534;8.500;2023-02-11T10:16:28;70.3;;;34.3;;
53674;SDS011;39574;50.534;8.500;2023-02-11T10:21:24;69.7;;;34.3;;
53674;SDS011;39574;50.534;8.500;2023-02-11T10:26:22;66.9;;;32.9;;
53674;SDS011;39574;50.534;8.500;2023-02-11T10:31:22;62.8;;;31.5;;
53674;SDS011;39574;50.534;8.500;2023-02-11T10:36:19;58.1;;;30.5;;
53674;SDS011;39574;50.534;8.500;2023-02-11T10:41:19;57.0;;;29.9;;
53674;SDS011;39574;50.534;8.500;2023-02-11T10:46:17;56.9;;;29.9;;
53674;SDS011;39574;50.534;8.500;2023-02-11T10:51:17;56.7;;;29.8;;
53674;SDS011;39574;50.534;8.500;2023-02-11T10:56:18;58.5;;;30.3;;
53674;SDS011;39574;50.534;8.500;2023-02-11T11:01:13;57.7;;;29.8;;
53674;SDS011;39574;50.534;8.500;2023-02-11T11:06:11;57.8;;;29.9;;
53674;SDS011;39574;50.534;8.500;2023-02-11T11:11:11;60.5;;;30.2;;
53674;SDS011;39574;50.534;8.500;2023-02-11T11:16:15;60.4;;;30.5;;
53674;SDS011;39574;50.534;8.500;2023-02-11T11:21:11;61.0;;;30.7;;
53674;SDS011;39574;50.534;8.500;2023-02-11T11:26:08;63.1;;;31.6;;
53674;SDS011;39574;50.534;8.500;2023-02-11T11:31:10;63.9;;;32.2;;
53674;SDS011;39574;50.534;8.500;2023-02-11T11:36:05;63.4;;;32.2;;
53674;SDS011;39574;50.534;8.500;2023-02-11T11:41:19;63.5;;;32.5;;
53674;SDS011;39574;50.534;8.500;2023-02-11T11:46:01;59.9;;;31.3;;
53674;SDS011;39574;50.534;8.500;2023-02-11T11:51:00;59.2;;;30.8;;
53674;SDS011;39574;50.534;8.500;2023-02-11T11:55:59;60.0;;;30.8;;
53674;SDS011;39574;50.534;8.500;2023-02-11T12:00:59;59.3;;;30.4;;
53674;SDS011;39574;50.534;8.500;2023-02-11T12:10:57;58.7;;;29.9;;
53674;SDS011;39574;50.534;8.500;2023-02-11T12:15:55;57.2;;;29.4;;
53674;SDS011;39574;50.534;8.500;2023-02-11T12:20:55;59.7;;;30.3;;
53674;SDS011;39574;50.534;8.500;2023-02-11T12:25:52;61.3;;;30.5;;
53674;SDS011;39574;50.534;8.500;2023-02-11T12:30:52;58.7;;;29.5;;
53674;SDS011;39574;50.534;8.500;2023-02-11T12:35:53;57.2;;;29.1;;
53674;SDS011;39574;50.534;8.500;2023-02-11T12:40:50;55.5;;;28.0;;
53674;SDS011;39574;50.534;8.500;2023-02-11T12:45:52;58.3;;;29.7;;
53674;SDS011;39574;50.534;8.500;2023-02-11T12:50:45;59.3;;;29.6;;
53674;SDS011;39574;50.534;8.500;2023-02-11T12:55:43;59.8;;;30.7;;
53674;SDS011;39574;50.534;8.500;2023-02-11T13:00:44;60.2;;;30.9;;
53674;SDS011;39574;50.534;8.500;2023-02-11T13:05:41;56.1;;;29.1;;
53674;SDS011;39574;50.534;8.500;2023-02-11T13:10:39;57.5;;;29.2;;
53674;SDS011;39574;50.534;8.500;2023-02-11T13:15:37;55.9;;;27.9;;
53674;SDS011;39574;50.534;8.500;2023-02-11T13:20:38;56.3;;;28.4;;
53674;SDS011;39574;50.534;8.500;2023-02-11T13:25:35;56.9;;;28.5;;
53674;SDS011;39574;50.534;8.500;2023-02-11T13:30:33;56.3;;;28.4;;
53674;SDS011;39574;50.534;8.500;2023-02-11T13:35:32;54.8;;;27.6;;
53674;SDS011;39574;50.534;8.500;2023-02-11T13:40:31;55.3;;;27.7;;
53674;SDS011;39574;50.534;8.500;2023-02-11T13:45:30;55.5;;;27.3;;
53674;SDS011;39574;50.534;8.500;2023-02-11T13:50:36;55.7;;;27.4;;
53674;SDS011;39574;50.534;8.500;2023-02-11T13:55:27;55.1;;;27.4;;
53674;SDS011;39574;50.534;8.500;2023-02-11T14:05:26;54.0;;;26.4;;
53674;SDS011;39574;50.534;8.500;2023-02-11T14:10:54;54.2;;;26.4;;
53674;SDS011;39574;50.534;8.500;2023-02-11T14:15:25;59.5;;;29.1;;
53674;SDS011;39574;50.534;8.500;2023-02-11T14:25:21;58.9;;;29.1;;
53674;SDS011;39574;50.534;8.500;2023-02-11T14:30:22;64.5;;;31.3;;
53674;SDS011;39574;50.534;8.500;2023-02-11T14:35:19;63.0;;;31.0;;
53674;SDS011;39574;50.534;8.500;2023-02-11T14:40:17;64.4;;;31.0;;
53674;SDS011;39574;50.534;8.500;2023-02-11T14:45:15;64.0;;;31.2;;
53674;SDS011;39574;50.534;8.500;2023-02-11T14:50:14;62.6;;;31.2;;
53674;SDS011;39574;50.534;8.500;2023-02-11T14:55:14;59.2;;;29.7;;
53674;SDS011;39574;50.534;8.500;2023-02-11T15:00:15;57.0;;;28.4;;
53674;SDS011;39574;50.534;8.500;2023-02-11T15:05:12;53.7;;;27.1;;
53674;SDS011;39574;50.534;8.500;2023-02-11T15:10:14;55.7;;;28.2;;
53674;SDS011;39574;50.534;8.500;2023-02-11T15:15:10;53.6;;;27.7;;
53674;SDS011;39574;50.534;8.500;2023-02-11T15:20:05;57.0;;;28.8;;
53674;SDS011;39574;50.534;8.500;2023-02-11T15:25:07;56.9;;;28.5;;
53674;SDS011;39574;50.534;8.500;2023-02-11T15:30:07;57.5;;;28.0;;
53674;SDS011;39574;50.534;8.500;2023-02-11T15:35:01;55.6;;;27.5;;
53674;SDS011;39574;50.534;8.500;2023-02-11T15:40:06;53.6;;;26.5;;
53674;SDS011;39574;50.534;8.500;2023-02-11T15:45:07;52.7;;;26.4;;
53674;SDS011;39574;50.534;8.500;2023-02-11T15:49:57;51.4;;;26.1;;
53674;SDS011;39574;50.534;8.500;2023-02-11T15:54:56;52.0;;;26.1;;
53674;SDS011;39574;50.534;8.500;2023-02-11T15:59:55;52.0;;;26.4;;
53674;SDS011;39574;50.534;8.500;2023-02-11T16:04:54;54.6;;;27.3;;
53674;SDS011;39574;50.534;8.500;2023-02-11T16:09:55;55.3;;;27.8;;
53674;SDS011;39574;50.534;8.500;2023-02-11T16:14:51;56.3;;;27.6;;
53674;SDS011;39574;50.534;8.500;2023-02-11T16:19:50;57.2;;;28.2;;
53674;SDS011;39574;50.534;8.500;2023-02-11T16:24:48;58.0;;;28.5;;
53674;SDS011;39574;50.534;8.500;2023-02-11T16:29:47;56.7;;;27.7;;
53674;SDS011;39574;50.534;8.500;2023-02-11T16:34:46;54.9;;;26.9;;
53674;SDS011;39574;50.534;8.500;2023-02-11T16:39:45;54.9;;;27.6;;
53674;SDS011;39574;50.534;8.500;2023-02-11T16:44:43;54.3;;;28.1;;
53674;SDS011;39574;50.534;8.500;2023-02-11T16:49:42;56.0;;;29.4;;
53674;SDS011;39574;50.534;8.500;2023-02-11T16:54:41;54.7;;;28.7;;
53674;SDS011;39574;50.534;8.500;2023-02-11T16:59:39;57.4;;;29.7;;
53674;SDS011;39574;50.534;8.500;2023-02-11T17:04:38;55.5;;;29.1;;
53674;SDS011;39574;50.534;8.500;2023-02-11T17:09:37;55.4;;;28.8;;
53674;SDS011;39574;50.534;8.500;2023-02-11T17:14:35;55.4;;;28.5;;
53674;SDS011;39574;50.534;8.500;2023-02-11T17:19:34;55.6;;;27.9;;
53674;SDS011;39574;50.534;8.500;2023-02-11T17:24:33;56.6;;;28.1;;
53674;SDS011;39574;50.534;8.500;2023-02-11T17:29:31;59.1;;;28.1;;
53674;SDS011;39574;50.534;8.500;2023-02-11T17:34:30;58.9;;;28.2;;
53674;SDS011;39574;50.534;8.500;2023-02-11T17:39:29;59.6;;;28.4;;
53674;SDS011;39574;50.534;8.500;2023-02-11T17:44:28;59.2;;;27.8;;
53674;SDS011;39574;50.534;8.500;2023-02-11T17:49:26;58.0;;;27.7;;
53674;SDS011;39574;50.534;8.500;2023-02-11T17:54:25;64.4;;;29.9;;
53674;SDS011;39574;50.534;8.500;2023-02-11T17:59:24;67.5;;;31.1;;
53674;SDS011;39574;50.534;8.500;2023-02-11T18:04:22;70.5;;;32.1;;
53674;SDS011;39574;50.534;8.500;2023-02-11T18:09:21;74.3;;;32.7;;
53674;SDS011;39574;50.534;8.500;2023-02-11T18:14:20;72.2;;;32.5;;
53674;SDS011;39574;50.534;8.500;2023-02-11T18:19:19;74.8;;;33.4;;
53674;SDS011;39574;50.534;8.500;2023-02-11T18:24:17;75.2;;;33.8;;
53674;SDS011;39574;50.534;8.500;2023-02-11T18:29:16;79.3;;;35.8;;
53674;SDS011;39574;50.534;8.500;2023-02-11T18:34:15;78.1;;;34.9;;
53674;SDS011;39574;50.534;8.500;2023-02-11T18:39:14;76.0;;;33.3;;
53674;SDS011;39574;50.534;8.500;2023-02-11T18:44:12;74.3;;;32.4;;
53674;SDS011;39574;50.534;8.500;2023-02-11T18:49:11;72.3;;;31.1;;
53674;SDS011;39574;50.534;8.500;2023-02-11T18:54:10;72.4;;;30.9;;
53674;SDS011;39574;50.534;8.500;2023-02-11T18:59:08;71.2;;;31.2;;
53674;SDS011;39574;50.534;8.500;2023-02-11T19:04:07;70.2;;;30.9;;
53674;SDS011;39574;50.534;8.500;2023-02-11T19:09:06;74.4;;;31.8;;
53674;SDS011;39574;50.534;8.500;2023-02-11T19:14:05;72.9;;;30.9;;
53674;SDS011;39574;50.534;8.500;2023-02-11T19:19:04;74.5;;;30.7;;
53674;SDS011;39574;50.534;8.500;2023-02-11T19:24:04;77.2;;;32.9;;
53674;SDS011;39574;50.534;8.500;2023-02-11T19:29:01;78.5;;;32.9;;
53674;SDS011;39574;50.534;8.500;2023-02-11T19:34:00;78.5;;;33.0;;
53674;SDS011;39574;50.534;8.500;2023-02-11T19:38:58;73.1;;;31.4;;
53674;SDS011;39574;50.534;8.500;2023-02-11T19:43:57;71.3;;;30.5;;
53674;SDS011;39574;50.534;8.500;2023-02-11T19:48:57;73.5;;;32.2;;
53674;SDS011;39574;50.534;8.500;2023-02-11T19:53:56;71.7;;;32.0;;
53674;SDS011;39574;50.534;8.500;2023-02-11T19:58:53;70.3;;;31.6;;
53674;SDS011;39574;50.534;8.500;2023-02-11T20:03:53;69.3;;;30.7;;
53674;SDS011;39574;50.534;8.500;2023-02-11T20:08:51;68.2;;;30.4;;
53674;SDS011;39574;50.534;8.500;2023-02-11T20:13:50;68.0;;;29.9;;
53674;SDS011;39574;50.534;8.500;2023-02-11T20:18:50;71.0;;;30.5;;
53674;SDS011;39574;50.534;8.500;2023-02-11T20:23:48;71.3;;;30.4;;
53674;SDS011;39574;50.534;8.500;2023-02-11T20:28:46;71.0;;;30.4;;
53674;SDS011;39574;50.534;8.500;2023-02-11T20:33:45;69.7;;;30.4;;
53674;SDS011;39574;50.534;8.500;2023-02-11T20:38:44;72.3;;;31.1;;
53674;SDS011;39574;50.534;8.500;2023-02-11T20:43:42;70.7;;;31.7;;
53674;SDS011;39574;50.534;8.500;2023-02-11T20:48:41;72.3;;;32.3;;
53674;SDS011;39574;50.534;8.500;2023-02-11T20:53:40;71.5;;;32.2;;
53674;SDS011;39574;50.534;8.500;2023-02-11T20:58:38;78.0;;;36.4;;
53674;SDS011;39574;50.534;8.500;2023-02-11T21:03:37;78.4;;;36.6;;
53674;SDS011;39574;50.534;8.500;2023-02-11T21:08:36;75.6;;;35.5;;
53674;SDS011;39574;50.534;8.500;2023-02-11T21:13:35;75.5;;;35.3;;
53674;SDS011;39574;50.534;8.500;2023-02-11T21:18:33;75.8;;;35.8;;
53674;SDS011;39574;50.534;8.500;2023-02-11T21:23:32;76.1;;;35.4;;
53674;SDS011;39574;50.534;8.500;2023-02-11T21:28:31;73.9;;;33.9;;
53674;SDS011;39574;50.534;8.500;2023-02-11T21:33:30;73.0;;;33.3;;
53674;SDS011;39574;50.534;8.500;2023-02-11T21:38:29;77.2;;;35.9;;
53674;SDS011;39574;50.534;8.500;2023-02-11T21:43:27;80.8;;;37.2;;
53674;SDS011;39574;50.534;8.500;2023-02-11T21:48:26;79.3;;;35.8;;
53674;SDS011;39574;50.534;8.500;2023-02-11T21:53:25;74.4;;;33.9;;
53674;SDS011;39574;50.534;8.500;2023-02-11T21:58:24;74.4;;;33.1;;
53674;SDS011;39574;50.534;8.500;2023-02-11T22:03:22;69.9;;;32.0;;
53674;SDS011;39574;50.534;8.500;2023-02-11T22:08:21;70.9;;;33.5;;
53674;SDS011;39574;50.534;8.500;2023-02-11T22:13:20;70.1;;;32.7;;
53674;SDS011;39574;50.534;8.500;2023-02-11T22:18:19;71.9;;;33.2;;
53674;SDS011;39574;50.534;8.500;2023-02-11T22:23:18;69.8;;;32.1;;
53674;SDS011;39574;50.534;8.500;2023-02-11T22:28:16;66.6;;;30.4;;
53674;SDS011;39574;50.534;8.500;2023-02-11T22:33:15;64.9;;;29.7;;
53674;SDS011;39574;50.534;8.500;2023-02-11T22:38:14;65.8;;;29.7;;
53674;SDS011;39574;50.534;8.500;2023-02-11T22:43:12;71.1;;;31.4;;
53674;SDS011;39574;50.534;8.500;2023-02-11T22:48:11;71.4;;;31.8;;
53674;SDS011;39574;50.534;8.500;2023-02-11T22:53:10;74.9;;;34.1;;
53674;SDS011;39574;50.534;8.500;2023-02-11T22:58:09;77.2;;;34.9;;
53674;SDS011;39574;50.534;8.500;2023-02-11T23:03:09;76.0;;;34.9;;
53674;SDS011;39574;50.534;8.500;2023-02-11T23:08:07;77.3;;;35.9;;
53674;SDS011;39574;50.534;8.500;2023-02-11T23:13:05;77.0;;;36.0;;
53674;SDS011;39574;50.534;8.500;2023-02-11T23:18:04;77.4;;;36.6;;
53674;SDS011;39574;50.534;8.500;2023-02-11T23:23:03;75.7;;;35.4;;
53674;SDS011;39574;50.534;8.500;2023-02-11T23:28:01;84.1;;;38.4;;
53674;SDS011;39574;50.534;8.500;2023-02-11T23:33:00;87.2;;;39.5;;
53674;SDS011;39574;50.534;8.500;2023-02-11T23:37:59;89.7;;;39.8;;
53674;SDS011;39574;50.534;8.500;2023-02-11T23:42:58;87.2;;;39.5;;
53674;SDS011;39574;50.534;8.500;2023-02-11T23:47:57;81.5;;;37.2;;
53674;SDS011;39574;50.534;8.500;2023-02-11T23:52:55;80.8;;;36.8;;
53674;SDS011;39574;50.534;8.500;2023-02-11T23:57:54;77.2;;;35.0;;
